createdAt,value
2018-05-18T00:00:14.495Z,13.00
2018-05-18T00:02:44.392Z,13.00
2018-05-18T00:05:15.712Z,13.00
2018-05-18T00:07:49.882Z,13.10
2018-05-18T00:10:24.815Z,13.00
2018-05-18T00:12:58.279Z,12.90
2018-05-18T00:15:29.274Z,12.80
2018-05-18T00:18:04.138Z,12.90
2018-05-18T00:20:45.155Z,12.80
2018-05-18T00:28:39.334Z,12.80
2018-05-18T00:33:44.554Z,12.80
2018-05-18T00:39:01.265Z,12.70
2018-05-18T00:41:42.665Z,12.60
2018-05-18T00:44:18.122Z,12.60
2018-05-18T00:47:02.053Z,12.60
2018-05-18T00:49:35.131Z,12.50
2018-05-18T00:52:06.272Z,12.50
2018-05-18T00:54:36.829Z,12.50
2018-05-18T01:00:00.823Z,12.40
2018-05-18T01:05:06.740Z,12.40
2018-05-18T01:10:19.755Z,12.40
2018-05-18T01:12:51.772Z,12.40
2018-05-18T01:15:21.431Z,12.40
2018-05-18T01:17:51.495Z,12.40
2018-05-18T01:23:16.084Z,12.20
2018-05-18T01:25:50.527Z,12.20
2018-05-18T01:28:21.935Z,12.20
2018-05-18T01:30:56.472Z,12.10
2018-05-18T01:33:26.933Z,12.20
2018-05-18T01:35:57.928Z,12.20
2018-05-18T01:38:32.535Z,12.20
2018-05-18T01:41:01.821Z,12.10
2018-05-18T01:43:34.517Z,12.10
2018-05-18T01:46:05.348Z,12.00
2018-05-18T01:48:34.958Z,12.00
2018-05-18T01:53:55.794Z,11.90
2018-05-18T01:56:29.338Z,11.90
2018-05-18T01:59:01.220Z,11.90
2018-05-18T02:01:37.051Z,11.80
2018-05-18T02:04:10.851Z,11.80
2018-05-18T02:06:40.101Z,11.80
2018-05-18T02:09:14.363Z,11.70
2018-05-18T02:11:48.566Z,11.70
2018-05-18T02:16:56.781Z,11.60
2018-05-18T02:19:30.538Z,11.30
2018-05-18T02:22:00.978Z,11.30
2018-05-18T02:24:29.334Z,11.40
2018-05-18T02:26:56.600Z,11.40
2018-05-18T02:29:29.473Z,11.40
2018-05-18T02:32:00.796Z,11.40
2018-05-18T02:34:32.317Z,11.40
2018-05-18T02:37:01.667Z,11.30
2018-05-18T02:39:32.000Z,11.20
2018-05-18T02:42:02.794Z,11.20
2018-05-18T02:44:33.156Z,11.20
2018-05-18T02:47:05.899Z,11.20
2018-05-18T02:49:34.411Z,11.20
2018-05-18T02:52:06.400Z,11.10
2018-05-18T02:54:36.966Z,11.20
2018-05-18T02:57:04.802Z,11.20
2018-05-18T02:59:35.536Z,11.20
2018-05-18T03:02:07.070Z,11.20
2018-05-18T03:04:36.610Z,11.20
2018-05-18T03:07:05.011Z,11.10
2018-05-18T03:09:34.850Z,11.20
2018-05-18T03:12:04.890Z,11.20
2018-05-18T03:14:34.620Z,11.20
2018-05-18T03:17:05.838Z,11.30
2018-05-18T03:19:35.941Z,11.20
2018-05-18T03:22:04.273Z,11.20
2018-05-18T03:24:33.540Z,11.10
2018-05-18T03:27:04.561Z,11.20
2018-05-18T03:29:33.489Z,11.10
2018-05-18T03:32:04.104Z,11.10
2018-05-18T03:34:34.541Z,11.10
2018-05-18T03:37:05.191Z,11.10
2018-05-18T03:39:36.287Z,11.10
2018-05-18T03:42:05.298Z,11.10
2018-05-18T03:44:34.779Z,11.00
2018-05-18T03:47:08.492Z,11.00
2018-05-18T03:49:37.493Z,11.00
2018-05-18T03:52:06.934Z,10.90
2018-05-18T03:54:42.119Z,10.90
2018-05-18T03:57:10.406Z,11.00
2018-05-18T03:59:41.409Z,11.10
2018-05-18T04:02:11.561Z,11.00
2018-05-18T04:04:44.726Z,11.10
2018-05-18T04:07:14.128Z,11.10
2018-05-18T04:09:42.872Z,11.10
2018-05-18T04:14:46.130Z,11.10
2018-05-18T04:17:16.545Z,11.10
2018-05-18T04:19:49.661Z,11.10
2018-05-18T04:22:19.485Z,11.10
2018-05-18T04:24:48.256Z,11.10
2018-05-18T04:27:22.434Z,11.10
2018-05-18T04:29:55.386Z,11.10
2018-05-18T04:32:29.413Z,11.10
2018-05-18T04:34:58.831Z,11.10
2018-05-18T04:37:29.621Z,11.20
2018-05-18T04:39:58.349Z,11.20
2018-05-18T04:42:27.878Z,11.20
2018-05-18T04:44:56.079Z,11.20
2018-05-18T04:47:25.344Z,11.30
2018-05-18T04:49:56.052Z,11.30
2018-05-18T04:52:24.973Z,11.20
2018-05-18T04:54:58.696Z,11.30
2018-05-18T04:57:30.586Z,11.40
2018-05-18T05:00:02.551Z,11.40
2018-05-18T05:02:36.672Z,11.40
2018-05-18T05:05:10.428Z,11.40
2018-05-18T05:07:40.336Z,11.50
2018-05-18T05:10:12.889Z,11.60
2018-05-18T05:12:42.492Z,11.60
2018-05-18T05:15:13.066Z,11.70
2018-05-18T05:17:45.017Z,11.70
2018-05-18T05:20:15.070Z,11.70
2018-05-18T05:22:45.597Z,11.60
2018-05-18T05:25:16.470Z,11.50
2018-05-18T05:27:48.500Z,11.50
2018-05-18T05:30:16.020Z,11.40
2018-05-18T05:32:46.183Z,11.30
2018-05-18T05:35:13.371Z,11.30
2018-05-18T05:37:41.637Z,11.40
2018-05-18T05:40:10.873Z,11.40
2018-05-18T05:42:38.391Z,11.40
2018-05-18T05:45:07.597Z,11.40
2018-05-18T05:47:37.807Z,11.40
2018-05-18T05:50:08.812Z,11.40
2018-05-18T05:52:39.797Z,11.50
2018-05-18T05:55:12.012Z,11.50
2018-05-18T05:57:40.212Z,11.50
2018-05-18T06:00:11.905Z,11.60
2018-05-18T06:02:40.657Z,11.60
2018-05-18T06:05:08.870Z,11.70
2018-05-18T06:07:40.228Z,11.70
2018-05-18T06:10:10.071Z,11.70
2018-05-18T06:12:40.346Z,11.80
2018-05-18T06:15:09.123Z,11.90
2018-05-18T06:17:40.930Z,12.00
2018-05-18T06:20:08.213Z,12.10
2018-05-18T06:22:39.915Z,12.10
2018-05-18T06:25:10.094Z,12.20
2018-05-18T06:27:39.174Z,12.20
2018-05-18T06:30:09.938Z,12.40
2018-05-18T06:32:41.686Z,12.50
2018-05-18T06:35:10.701Z,12.50
2018-05-18T06:37:40.825Z,12.60
2018-05-18T06:40:11.322Z,12.70
2018-05-18T06:42:43.434Z,12.80
2018-05-18T06:45:11.669Z,12.70
2018-05-18T06:47:41.872Z,12.70
2018-05-18T06:50:11.612Z,12.80
2018-05-18T06:52:41.405Z,12.70
2018-05-18T06:55:09.618Z,12.90
2018-05-18T06:57:39.352Z,13.00
2018-05-18T07:00:06.817Z,13.10
2018-05-18T07:02:36.531Z,13.30
2018-05-18T07:05:03.825Z,13.30
2018-05-18T07:07:35.799Z,13.20
2018-05-18T07:10:05.263Z,13.30
2018-05-18T07:12:35.446Z,13.50
2018-05-18T07:15:06.657Z,13.40
2018-05-18T07:17:35.945Z,13.60
2018-05-18T07:20:09.932Z,13.60
2018-05-18T07:22:41.196Z,13.60
2018-05-18T07:25:08.831Z,13.60
2018-05-18T07:27:37.200Z,13.70
2018-05-18T07:30:06.010Z,13.70
2018-05-18T07:32:35.599Z,13.80
2018-05-18T07:35:04.701Z,13.90
2018-05-18T07:37:31.357Z,13.90
2018-05-18T07:39:59.439Z,14.00
2018-05-18T07:42:26.992Z,13.90
2018-05-18T07:44:55.878Z,14.00
2018-05-18T07:47:22.797Z,14.10
2018-05-18T07:49:52.061Z,14.30
2018-05-18T07:52:21.075Z,14.40
2018-05-18T07:54:50.826Z,14.40
2018-05-18T07:57:17.447Z,14.50
2018-05-18T07:59:46.739Z,14.50
2018-05-18T08:02:17.152Z,14.60
2018-05-18T08:04:46.726Z,14.60
2018-05-18T08:07:14.330Z,14.60
2018-05-18T08:09:44.032Z,14.80
2018-05-18T08:12:11.960Z,15.00
2018-05-18T08:14:43.435Z,15.10
2018-05-18T08:17:12.822Z,15.10
2018-05-18T08:19:43.874Z,15.20
2018-05-18T08:22:11.868Z,15.10
2018-05-18T08:24:39.721Z,15.20
2018-05-18T08:27:10.055Z,15.40
2018-05-18T08:29:38.110Z,15.40
2018-05-18T08:32:07.150Z,15.50
2018-05-18T08:34:34.496Z,15.50
2018-05-18T08:37:06.403Z,15.60
2018-05-18T08:39:32.952Z,15.60
2018-05-18T08:42:04.832Z,15.70
2018-05-18T08:44:35.362Z,15.60
2018-05-18T08:47:05.074Z,15.80
2018-05-18T08:49:31.551Z,15.90
2018-05-18T08:52:00.810Z,15.90
2018-05-18T08:54:30.002Z,16.00
2018-05-18T08:56:59.012Z,16.10
2018-05-18T08:59:30.326Z,16.20
2018-05-18T09:01:58.067Z,16.20
2018-05-18T09:04:28.586Z,16.30
2018-05-18T09:06:57.323Z,16.40
2018-05-18T09:09:29.271Z,16.60
2018-05-18T09:11:59.726Z,16.70
2018-05-18T09:14:32.413Z,16.80
2018-05-18T09:17:05.401Z,17.00
2018-05-18T09:19:34.858Z,17.20
2018-05-18T09:22:03.117Z,17.30
2018-05-18T09:24:31.386Z,17.50
2018-05-18T09:27:00.902Z,17.70
2018-05-18T09:29:28.242Z,17.70
2018-05-18T09:32:00.011Z,17.80
2018-05-18T09:34:28.440Z,18.00
2018-05-18T09:36:58.999Z,18.10
2018-05-18T09:39:25.589Z,18.20
2018-05-18T09:41:55.641Z,18.40
2018-05-18T09:44:22.596Z,18.60
2018-05-18T09:46:53.556Z,18.60
2018-05-18T09:49:24.091Z,18.80
2018-05-18T09:51:55.618Z,18.90
2018-05-18T09:54:23.716Z,19.20
2018-05-18T09:59:23.750Z,19.20
2018-05-18T10:01:51.203Z,19.00
2018-05-18T10:04:20.301Z,19.00
2018-05-18T10:06:48.737Z,19.00
2018-05-18T10:09:19.068Z,18.90
2018-05-18T10:11:48.354Z,19.00
2018-05-18T10:14:17.224Z,19.20
2018-05-18T10:16:45.849Z,19.10
2018-05-18T10:19:15.319Z,19.10
2018-05-18T10:21:42.844Z,19.10
2018-05-18T10:24:15.224Z,18.90
2018-05-18T10:26:46.218Z,18.90
2018-05-18T10:29:18.588Z,18.90
2018-05-18T10:31:48.325Z,18.90
2018-05-18T10:34:21.363Z,19.00
2018-05-18T10:36:48.803Z,18.90
2018-05-18T10:39:17.173Z,18.80
2018-05-18T10:41:45.023Z,18.70
2018-05-18T10:44:13.154Z,18.80
2018-05-18T10:46:42.301Z,18.90
2018-05-18T10:49:13.022Z,18.90
2018-05-18T10:51:41.732Z,19.00
2018-05-18T10:54:09.471Z,19.00
2018-05-18T10:56:39.684Z,19.20
2018-05-18T10:59:07.617Z,19.20
2018-05-18T11:01:37.343Z,19.30
2018-05-18T11:04:08.057Z,19.40
2018-05-18T11:06:36.053Z,19.50
2018-05-18T11:09:07.494Z,19.60
2018-05-18T11:11:36.460Z,19.70
2018-05-18T11:14:12.459Z,19.80
2018-05-18T11:19:13.197Z,19.80
2018-05-18T11:21:43.638Z,19.80
2018-05-18T11:24:11.935Z,20.00
2018-05-18T11:26:41.203Z,20.10
2018-05-18T11:29:09.888Z,20.30
2018-05-18T11:31:38.575Z,20.40
2018-05-18T11:34:08.986Z,20.50
2018-05-18T11:36:40.141Z,20.60
2018-05-18T11:39:13.537Z,20.60
2018-05-18T11:41:41.595Z,20.50
2018-05-18T11:44:10.811Z,20.60
2018-05-18T11:46:41.370Z,20.50
2018-05-18T11:49:08.735Z,20.60
2018-05-18T11:51:41.541Z,20.60
2018-05-18T11:54:11.333Z,21.00
2018-05-18T11:59:28.192Z,21.20
2018-05-18T12:30:26.609Z,22.70
2018-05-18T12:35:59.795Z,22.70
2018-05-18T12:38:37.315Z,22.70
2018-05-18T12:59:29.000Z,23.20
2018-05-18T13:04:41.686Z,23.40
2018-05-18T13:07:13.145Z,23.40
2018-05-18T13:09:46.740Z,23.30
2018-05-18T13:15:01.958Z,23.40
2018-05-18T13:17:33.353Z,23.40
2018-05-18T13:20:03.847Z,23.70
2018-05-18T13:49:19.507Z,24.60
2018-05-18T13:51:58.412Z,24.50
2018-05-18T13:54:36.829Z,24.50
2018-05-18T13:57:08.440Z,24.50
2018-05-18T13:59:44.814Z,24.30
2018-05-18T14:07:51.335Z,24.30
2018-05-18T14:10:17.314Z,24.30
2018-05-18T14:12:47.124Z,24.10
2018-05-18T14:15:23.340Z,24.30
2018-05-18T14:17:51.718Z,24.40
2018-05-18T14:20:18.529Z,24.20
2018-05-18T14:22:45.656Z,24.20
2018-05-18T14:25:12.994Z,24.00
2018-05-18T14:27:39.292Z,23.80
2018-05-18T14:30:05.279Z,23.70
2018-05-18T14:32:32.207Z,23.70
2018-05-18T14:34:58.189Z,23.80
2018-05-18T14:37:24.202Z,23.90
2018-05-18T14:39:50.427Z,23.90
2018-05-18T14:42:17.979Z,24.20
2018-05-18T14:44:43.903Z,24.40
2018-05-18T14:47:10.787Z,24.30
2018-05-18T14:49:36.759Z,24.10
2018-05-18T14:52:04.974Z,24.10
2018-05-18T14:54:33.547Z,23.90
2018-05-18T14:57:04.501Z,23.70
2018-05-18T14:59:33.390Z,23.80
2018-05-18T15:05:11.163Z,23.90
2018-05-18T15:07:56.679Z,23.80
2018-05-18T15:10:24.718Z,23.70
2018-05-18T15:13:01.019Z,23.70
2018-05-18T15:15:31.223Z,23.90
2018-05-18T15:21:15.135Z,23.90
2018-05-18T15:23:48.118Z,23.70
2018-05-18T15:26:14.323Z,23.80
2018-05-18T15:28:40.265Z,23.80
2018-05-18T15:31:06.154Z,23.80
2018-05-18T15:33:32.082Z,23.50
2018-05-18T15:35:57.984Z,23.40
2018-05-18T15:38:23.882Z,23.40
2018-05-18T15:40:51.598Z,23.40
2018-05-18T15:43:17.637Z,23.50
2018-05-18T15:45:43.735Z,23.50
2018-05-18T15:48:09.700Z,23.40
2018-05-18T15:50:38.447Z,23.20
2018-05-18T15:56:03.622Z,23.20
2018-05-18T15:58:38.413Z,23.30
2018-05-18T16:16:44.246Z,23.20
2018-05-18T16:19:31.293Z,23.20
2018-05-18T16:24:57.776Z,22.80
